Time;durP1;ratioP1;P1;durP2;ratioP2;P2;SDS_P1;SDS_P2;PMS_P1;PMS_P2;Temp;Humidity;BMP_temperature;BMP_pressure;BME280_temperature;BME280_humidity;BME280_pressure;Samples;Min_cycle;Max_cycle;Signal;HPM_P1;HPM_P2
2021/12/16 00:08:58;;;;;;;5.50;4.23;;;10.20;99.90;10.00;103295.00;;;;5115206;28;20182;-76
2021/12/16 00:34:00;;;;;;;6.10;5.47;;;10.20;99.90;9.90;103287.00;;;;5113751;28;20178;-72
2021/12/16 00:36:39;;;;;;;2.37;1.80;;;10.20;99.90;10.40;103294.00;;;;5108451;28;20186;-74
2021/12/16 00:39:22;;;;;;;3.27;3.07;;;10.30;99.90;10.20;103280.00;;;;5094158;28;20197;-77
2021/12/16 00:42:05;;;;;;;4.20;4.00;;;10.40;99.90;10.20;103293.00;;;;5093938;28;20205;-76
2021/12/16 00:47:31;;;;;;;8.97;8.17;;;10.20;99.90;10.20;103281.00;;;;5105787;28;20223;-76
2021/12/16 00:50:21;;;;;;;5.93;5.33;;;10.20;99.90;10.20;103295.00;;;;5113610;28;20178;-76
2021/12/16 00:55:53;;;;;;;0.80;0.80;;;10.10;99.90;10.10;103301.00;;;;5112595;28;20272;-76
2021/12/16 00:58:43;;;;;;;4.80;1.70;;;10.10;99.90;10.20;103288.00;;;;5113602;28;20185;-76
2021/12/16 01:57:24;;;;;;;0.53;0.53;;;10.40;99.90;10.10;103282.00;;;;5091645;28;20183;-73
2021/12/16 02:00:05;;;;;;;3.23;2.93;;;10.30;99.90;10.50;103284.00;;;;5094049;28;20548;-73
2021/12/16 02:02:50;;;;;;;0.83;0.83;;;10.30;99.90;10.20;103314.00;;;;5076837;28;20204;-73
2021/12/16 02:08:22;;;;;;;1.63;0.93;;;10.50;99.90;10.10;103333.00;;;;5092543;28;20381;-74
2021/12/16 02:11:29;;;;;;;0.30;0.30;;;10.30;99.90;10.10;103335.00;;;;5093215;28;20583;-74
2021/12/16 02:29:18;;;;;;;0.90;0.90;;;10.40;99.90;10.90;103343.00;;;;5097517;28;20224;-74
2021/12/16 02:36:43;;;;;;;2.27;2.07;;;10.60;99.90;11.00;103346.00;;;;5092118;28;20204;-76
2021/12/16 02:39:42;;;;;;;7.57;4.97;;;10.60;99.90;10.50;103326.00;;;;5091970;28;20274;-77
2021/12/16 02:42:21;;;;;;;2.27;1.70;;;10.50;99.90;10.40;103343.00;;;;5075904;28;20267;-75
2021/12/16 02:50:33;;;;;;;2.70;2.17;;;10.50;99.90;10.60;103304.00;;;;5091982;28;20657;-74
2021/12/16 02:53:11;;;;;;;4.47;3.47;;;10.50;99.90;10.40;103310.00;;;;5090999;28;20216;-75
2021/12/16 02:55:42;;;;;;;1.27;1.27;;;10.50;99.90;10.50;103345.00;;;;5090316;28;20179;-75
2021/12/16 02:58:16;;;;;;;5.37;4.73;;;10.50;99.90;10.60;103348.00;;;;5091992;28;20203;-75
2021/12/16 03:00:56;;;;;;;1.60;1.03;;;10.50;99.90;10.50;103337.00;;;;5092077;28;20170;-75
2021/12/16 03:03:31;;;;;;;8.63;4.33;;;10.50;99.90;10.60;103347.00;;;;5091333;28;20237;-74
2021/12/16 03:05:59;;;;;;;26.73;4.97;;;10.50;99.90;10.90;103343.00;;;;5073825;28;20214;-76
2021/12/16 03:08:25;;;;;;;3.80;3.50;;;10.70;99.90;10.50;103337.00;;;;5093222;28;20174;-76
2021/12/16 03:13:32;;;;;;;1.97;1.77;;;10.50;99.90;10.50;103343.00;;;;5092045;28;20169;-76
2021/12/16 03:16:21;;;;;;;3.53;3.27;;;10.50;99.90;10.80;103334.00;;;;5090953;28;20261;-77
2021/12/16 03:21:46;;;;;;;10.00;5.57;;;10.50;99.90;10.80;103346.00;;;;5095140;28;20207;-74
2021/12/16 03:35:39;;;;;;;6.13;4.57;;;10.50;99.90;9.90;103344.00;;;;5095052;28;20174;-73
2021/12/16 03:38:11;;;;;;;0.67;0.67;;;10.20;99.90;10.30;103357.00;;;;5095583;28;20653;-75
2021/12/16 03:40:42;;;;;;;1.47;1.40;;;10.30;99.90;10.80;103366.00;;;;5078504;28;20194;-75
2021/12/16 03:43:20;;;;;;;0.20;0.20;;;10.50;99.90;10.70;103372.00;;;;5078605;28;20621;-75
2021/12/16 03:48:59;;;;;;;1.53;1.50;;;10.50;99.90;10.50;103360.00;;;;5094570;28;20215;-76
2021/12/16 03:51:42;;;;;;;0.90;0.90;;;10.50;99.90;11.00;103371.00;;;;5093901;28;20572;-76
2021/12/16 03:54:27;;;;;;;4.17;3.87;;;10.70;99.90;11.20;103367.00;;;;5095244;28;20173;-76
2021/12/16 03:57:06;;;;;;;0.63;0.63;;;10.70;99.90;10.90;103367.00;;;;5077464;28;20197;-76
2021/12/16 03:59:40;;;;;;;2.30;2.20;;;10.80;99.90;10.70;103360.00;;;;5094704;28;20177;-77
2021/12/16 04:02:30;;;;;;;1.53;1.53;;;10.70;99.90;10.60;103359.00;;;;5095678;28;20202;-78
2021/12/16 04:05:11;;;;;;;3.13;2.20;;;10.60;99.90;10.60;103369.00;;;;5094655;28;20212;-74
2021/12/16 04:07:45;;;;;;;0.60;0.60;;;10.50;99.90;10.50;103323.00;;;;5095765;28;20160;-74
2021/12/16 04:10:42;;;;;;;0.60;0.60;;;10.40;99.90;10.40;103362.00;;;;5094485;28;20248;-74
2021/12/16 04:13:19;;;;;;;2.97;2.57;;;10.40;99.90;10.90;103369.00;;;;5094772;28;20680;-75
2021/12/16 04:15:50;;;;;;;1.90;1.80;;;10.60;99.90;11.00;103360.00;;;;5093808;28;20176;-74
2021/12/16 04:18:22;;;;;;;0.90;0.90;;;10.80;99.90;11.00;103366.00;;;;5094010;28;20187;-74
2021/12/16 04:20:54;;;;;;;0.80;0.80;;;10.70;99.90;10.60;103368.00;;;;5094396;28;20260;-74
2021/12/16 04:23:20;;;;;;;11.70;5.27;;;10.60;99.90;11.10;103377.00;;;;5077599;28;20177;-74
2021/12/16 04:25:48;;;;;;;0.83;0.83;;;10.80;99.90;10.90;103372.00;;;;5094246;28;20163;-74
2021/12/16 04:28:24;;;;;;;0.80;0.80;;;10.70;99.90;10.90;103332.00;;;;5094169;28;20252;-74
2021/12/16 04:30:54;;;;;;;1.13;1.13;;;10.80;99.90;11.20;103338.00;;;;5077146;28;20182;-74
2021/12/16 04:33:23;;;;;;;3.40;3.10;;;10.80;99.90;11.20;103371.00;;;;5093586;28;20216;-74
2021/12/16 04:35:52;;;;;;;2.57;2.47;;;10.90;99.90;11.00;103338.00;;;;5076688;28;20177;-74
2021/12/16 04:38:20;;;;;;;1.33;1.33;;;10.80;99.90;11.30;103348.00;;;;5094217;28;20175;-73
2021/12/16 04:40:50;;;;;;;2.17;1.97;;;11.00;99.90;11.20;103369.00;;;;5094087;28;20180;-75
2021/12/16 04:43:23;;;;;;;8.73;5.90;;;11.00;99.90;11.10;103366.00;;;;5076588;28;20655;-75
2021/12/16 04:45:54;;;;;;;0.77;0.77;;;11.00;99.90;10.60;103378.00;;;;5093795;28;20226;-74
2021/12/16 04:48:23;;;;;;;2.53;2.43;;;10.70;99.90;11.20;103372.00;;;;5075910;28;20181;-74
2021/12/16 04:50:57;;;;;;;0.30;0.30;;;10.70;99.90;10.60;103365.00;;;;5093733;28;20250;-74
2021/12/16 04:53:28;;;;;;;0.30;0.30;;;10.70;99.90;10.40;103370.00;;;;5076508;28;20196;-74
2021/12/16 04:56:00;;;;;;;2.47;2.27;;;10.50;99.90;10.80;103376.00;;;;5075997;28;20184;-74
2021/12/16 04:58:36;;;;;;;0.30;0.30;;;10.60;99.90;10.50;103373.00;;;;5093560;28;20643;-76
2021/12/16 05:01:05;;;;;;;0.50;0.50;;;10.50;99.90;10.50;103376.00;;;;5076902;28;20180;-76
2021/12/16 05:03:32;;;;;;;3.43;1.87;;;10.50;99.90;10.50;103389.00;;;;5075805;28;20184;-76
2021/12/16 05:05:59;;;;;;;0.83;0.83;;;10.50;99.90;10.90;103377.00;;;;5093666;28;20176;-76
2021/12/16 05:08:29;;;;;;;3.83;2.33;;;10.60;99.90;10.90;103363.00;;;;5094890;28;20178;-77
2021/12/16 05:10:58;;;;;;;2.90;2.80;;;10.60;99.90;10.70;103376.00;;;;5076482;28;20187;-77
2021/12/16 05:13:26;;;;;;;0.30;0.30;;;10.70;99.90;10.70;103375.00;;;;5091928;28;20197;-76
2021/12/16 05:16:01;;;;;;;2.00;1.90;;;10.70;99.90;10.90;103376.00;;;;5093069;28;20209;-76
2021/12/16 05:18:37;;;;;;;1.60;1.40;;;10.70;99.90;11.10;103383.00;;;;5093056;28;20176;-75
2021/12/16 05:21:40;;;;;;;0.30;0.30;;;10.90;99.90;11.00;103376.00;;;;5092877;28;20542;-75
2021/12/16 05:24:27;;;;;;;0.37;0.37;;;10.80;99.90;10.80;103335.00;;;;5093148;28;20192;-75
2021/12/16 05:27:07;;;;;;;0.30;0.30;;;10.70;99.90;10.40;103368.00;;;;5093261;28;20233;-75
2021/12/16 05:29:39;;;;;;;0.30;0.30;;;10.50;99.90;10.80;103387.00;;;;5092746;28;20162;-75
2021/12/16 05:32:14;;;;;;;0.30;0.30;;;10.60;99.90;10.70;103345.00;;;;5075416;28;20215;-75
2021/12/16 05:34:48;;;;;;;1.43;1.43;;;10.60;99.90;10.80;103338.00;;;;5075691;28;20187;-75
2021/12/16 05:37:19;;;;;;;0.73;0.73;;;10.60;99.90;11.00;103383.00;;;;5092595;28;20179;-75
2021/12/16 05:39:56;;;;;;;0.40;0.40;;;10.70;99.90;10.60;103383.00;;;;5075202;28;20188;-76
2021/12/16 05:42:27;;;;;;;1.93;1.77;;;10.60;99.90;11.00;103386.00;;;;5073293;28;20184;-76
2021/12/16 05:45:10;;;;;;;6.27;5.67;;;10.70;99.90;10.70;103389.00;;;;5093637;28;20194;-76
2021/12/16 05:47:47;;;;;;;2.00;1.90;;;10.60;99.90;10.60;103381.00;;;;5075915;28;20191;-78
2021/12/16 05:50:22;;;;;;;0.30;0.30;;;10.60;99.90;10.40;103384.00;;;;5076010;28;20221;-77
2021/12/16 05:52:57;;;;;;;0.47;0.47;;;10.50;99.90;10.20;103394.00;;;;5093638;28;20587;-78
2021/12/16 05:55:32;;;;;;;2.87;2.50;;;10.40;99.90;10.50;103392.00;;;;5075447;28;20546;-77
2021/12/16 05:58:15;;;;;;;0.30;0.30;;;10.40;99.90;11.00;103403.00;;;;5075354;28;20180;-77
2021/12/16 06:00:54;;;;;;;0.30;0.30;;;10.60;99.90;11.30;103412.00;;;;5076346;28;20621;-77
2021/12/16 06:03:25;;;;;;;0.40;0.40;;;10.90;99.90;11.30;103378.00;;;;5092859;28;20189;-77
2021/12/16 06:05:57;;;;;;;0.30;0.30;;;11.00;99.90;10.90;103361.00;;;;5092377;28;20179;-76
2021/12/16 06:08:33;;;;;;;0.40;0.40;;;10.80;99.90;11.20;103364.00;;;;5092429;28;20172;-76
2021/12/16 06:14:09;;;;;;;0.43;0.43;;;11.00;99.90;12.00;103410.00;;;;5092157;28;20562;-77
2021/12/16 06:28:10;;;;;;;0.50;0.50;;;11.00;99.90;11.60;103427.00;;;;5092319;28;20664;-76
2021/12/16 06:30:44;;;;;;;0.50;0.50;;;11.10;99.90;11.50;103381.00;;;;5091879;28;20261;-75
2021/12/16 06:33:22;;;;;;;0.47;0.47;;;11.00;99.90;11.70;103420.00;;;;5091232;28;20212;-75
2021/12/16 06:35:55;;;;;;;0.80;0.80;;;11.20;99.90;12.00;103413.00;;;;5092640;28;20685;-76
2021/12/16 06:38:29;;;;;;;0.90;0.90;;;11.30;99.90;12.20;103415.00;;;;5092031;28;20179;-74
2021/12/16 06:40:56;;;;;;;0.77;0.77;;;11.60;99.90;12.10;103397.00;;;;5074943;28;20184;-74
2021/12/16 06:43:23;;;;;;;0.50;0.50;;;11.50;99.90;11.70;103433.00;;;;5075221;28;20174;-74
2021/12/16 06:45:52;;;;;;;0.50;0.50;;;11.40;99.90;11.70;103437.00;;;;5092112;28;20193;-74
2021/12/16 06:48:24;;;;;;;0.40;0.40;;;11.30;99.90;12.00;103402.00;;;;5074302;28;20252;-74
2021/12/16 06:51:00;;;;;;;1.50;1.37;;;11.30;99.90;11.20;103437.00;;;;5076126;28;20207;-74
2021/12/16 06:53:44;;;;;;;0.60;0.60;;;11.20;99.90;10.60;103420.00;;;;5093431;28;20196;-74
2021/12/16 06:56:38;;;;;;;0.47;0.47;;;10.80;99.90;10.50;103447.00;;;;5080706;28;20454;-74
2021/12/16 06:59:23;;;;;;;0.30;0.30;;;10.60;99.90;11.00;103428.00;;;;5094912;28;20229;-74
2021/12/16 07:02:18;;;;;;;0.40;0.40;;;10.70;99.90;11.10;103443.00;;;;5096199;28;20249;-74
2021/12/16 07:04:47;;;;;;;0.80;0.80;;;10.70;99.90;11.00;103438.00;;;;5095079;28;20164;-74
2021/12/16 07:07:20;;;;;;;0.50;0.50;;;10.80;99.90;10.80;103449.00;;;;5095800;28;20270;-74
2021/12/16 07:09:54;;;;;;;0.30;0.30;;;10.80;99.90;11.10;103418.00;;;;5095661;28;20161;-74
2021/12/16 07:12:36;;;;;;;0.57;0.57;;;10.70;99.90;10.90;103450.00;;;;5096650;28;20524;-73
2021/12/16 07:15:27;;;;;;;0.40;0.40;;;10.80;99.90;11.00;103457.00;;;;5095424;28;20259;-75
2021/12/16 07:18:01;;;;;;;0.40;0.40;;;10.70;99.90;11.60;103460.00;;;;5077648;28;20651;-75
2021/12/16 07:20:35;;;;;;;0.40;0.40;;;11.00;99.90;11.80;103460.00;;;;5095890;28;20180;-75
2021/12/16 07:23:09;;;;;;;0.40;0.40;;;11.30;99.90;11.70;103466.00;;;;5095420;28;20187;-74
2021/12/16 07:25:41;;;;;;;0.40;0.40;;;11.20;99.90;11.70;103464.00;;;;5094705;28;20183;-74
2021/12/16 07:28:13;;;;;;;1.70;1.60;;;11.20;99.90;11.70;103460.00;;;;5094662;28;20156;-74
2021/12/16 07:30:46;;;;;;;0.50;0.50;;;11.20;99.90;11.40;103477.00;;;;5093911;28;20212;-73
2021/12/16 07:33:17;;;;;;;0.60;0.60;;;11.20;99.90;11.20;103478.00;;;;5096663;28;20214;-74
2021/12/16 07:35:46;;;;;;;0.40;0.40;;;11.00;99.90;11.00;103467.00;;;;5094677;28;20180;-74
2021/12/16 07:38:18;;;;;;;2.83;1.70;;;10.90;99.90;11.30;103477.00;;;;5096523;28;20181;-74
2021/12/16 07:40:51;;;;;;;0.57;0.57;;;11.00;99.90;10.90;103451.00;;;;5094417;28;20228;-74
2021/12/16 07:43:27;;;;;;;1.90;1.80;;;10.80;99.90;10.90;103495.00;;;;5095929;28;20255;-75
2021/12/16 07:45:56;;;;;;;0.40;0.40;;;10.70;99.90;10.60;103506.00;;;;5114921;28;20207;-74
2021/12/16 07:48:26;;;;;;;0.30;0.30;;;10.70;99.90;11.40;103514.00;;;;5115508;28;20236;-74
2021/12/16 07:50:56;;;;;;;0.30;0.30;;;10.90;99.90;11.00;103505.00;;;;5114395;28;20180;-75
2021/12/16 07:53:23;;;;;;;0.97;0.97;;;10.90;99.90;10.90;103515.00;;;;5116341;28;20535;-74
2021/12/16 07:55:49;;;;;;;0.40;0.40;;;10.80;99.90;10.60;103512.00;;;;5097632;28;20180;-74
2021/12/16 07:58:16;;;;;;;0.30;0.30;;;10.70;99.90;11.10;103520.00;;;;5098364;28;20187;-75
2021/12/16 08:00:43;;;;;;;1.33;1.23;;;10.80;99.90;11.30;103494.00;;;;5098144;28;20217;-74
2021/12/16 08:03:15;;;;;;;1.17;0.60;;;10.80;99.90;11.20;103495.00;;;;5097862;28;20192;-74
2021/12/16 08:05:51;;;;;;;0.40;0.40;;;10.90;99.90;10.90;103525.00;;;;5114323;28;20179;-74
2021/12/16 08:08:17;;;;;;;0.40;0.40;;;10.80;99.90;11.50;103524.00;;;;5115331;28;20185;-77
2021/12/16 08:10:44;;;;;;;0.50;0.50;;;11.10;99.90;10.80;103525.00;;;;5115009;28;20168;-76
2021/12/16 08:13:16;;;;;;;0.40;0.40;;;10.90;99.90;11.60;103540.00;;;;5097952;28;20686;-75
2021/12/16 08:15:50;;;;;;;0.40;0.40;;;11.10;99.90;11.60;103529.00;;;;5116320;28;20173;-74
2021/12/16 08:18:27;;;;;;;0.60;0.60;;;11.20;99.90;11.50;103502.00;;;;5115336;28;20181;-74
2021/12/16 08:20:53;;;;;;;0.50;0.50;;;11.20;99.90;11.50;103536.00;;;;5098245;28;20181;-74
2021/12/16 08:23:22;;;;;;;0.30;0.30;;;11.30;99.90;11.30;103538.00;;;;5097655;28;20184;-74
2021/12/16 08:25:51;;;;;;;0.40;0.40;;;11.10;99.90;11.50;103551.00;;;;5113854;28;20657;-74
2021/12/16 08:28:28;;;;;;;0.47;0.47;;;11.20;99.90;11.60;103541.00;;;;5115790;28;20176;-74
2021/12/16 08:30:59;;;;;;;0.40;0.40;;;11.20;99.90;12.00;103547.00;;;;5105877;28;20564;-75
2021/12/16 08:33:28;;;;;;;0.50;0.50;;;11.30;99.90;12.10;103542.00;;;;5094428;28;20224;-75
2021/12/16 08:36:01;;;;;;;1.00;0.97;;;11.50;99.90;11.40;103519.00;;;;5094044;28;20216;-74
2021/12/16 08:38:36;;;;;;;1.20;1.17;;;11.40;99.90;11.20;103553.00;;;;5077576;28;20184;-74
2021/12/16 08:41:21;;;;;;;0.50;0.50;;;11.20;99.90;11.70;103572.00;;;;5094179;28;20173;-75
2021/12/16 08:43:58;;;;;;;0.47;0.47;;;11.30;99.90;11.80;103531.00;;;;5076443;28;20168;-74
2021/12/16 08:46:36;;;;;;;0.70;0.70;;;11.30;99.90;11.80;103578.00;;;;5094002;28;20230;-74
2021/12/16 08:49:11;;;;;;;0.30;0.30;;;11.30;99.90;11.50;103579.00;;;;5094174;28;20176;-74
2021/12/16 08:51:45;;;;;;;2.83;2.73;;;11.40;99.90;11.50;103587.00;;;;5092736;28;20224;-75
2021/12/16 08:54:18;;;;;;;0.40;0.40;;;11.30;99.90;11.80;103582.00;;;;5076706;28;20274;-74
2021/12/16 08:56:56;;;;;;;0.40;0.40;;;11.30;99.90;11.80;103592.00;;;;5098576;28;20224;-75
2021/12/16 08:59:25;;;;;;;2.20;2.10;;;11.40;99.90;12.10;103592.00;;;;5109768;28;20213;-62
2021/12/16 09:02:07;;;;;;;1.43;1.43;;;11.50;99.90;12.00;103591.00;;;;5115155;28;20248;-76
2021/12/16 09:04:40;;;;;;;0.40;0.40;;;11.60;99.90;12.30;103585.00;;;;5114090;28;20212;-82
2021/12/16 09:07:16;;;;;;;0.40;0.40;;;11.70;99.90;12.40;103597.00;;;;5096845;28;20661;-74
2021/12/16 09:09:47;;;;;;;0.40;0.40;;;11.90;99.90;12.50;103589.00;;;;5084620;28;20270;-74
2021/12/16 09:14:58;;;;;;;1.57;1.47;;;11.70;99.90;12.00;103595.00;;;;5104966;28;20205;-74
2021/12/16 09:17:31;;;;;;;0.30;0.30;;;11.80;99.90;12.20;103597.00;;;;5097578;28;20264;-74
2021/12/16 09:20:07;;;;;;;0.40;0.40;;;11.90;99.90;12.30;103564.00;;;;5093329;28;20177;-74
2021/12/16 09:22:40;;;;;;;0.73;0.73;;;12.00;99.90;12.80;103603.00;;;;5092990;28;20177;-74
2021/12/16 09:25:10;;;;;;;1.23;0.97;;;12.10;99.90;12.50;103604.00;;;;5097419;28;20192;-75
2021/12/16 09:27:43;;;;;;;1.17;1.17;;;12.10;99.90;12.70;103601.00;;;;5095037;28;20208;-74
2021/12/16 09:30:17;;;;;;;0.60;0.60;;;12.20;99.90;11.90;103572.00;;;;5108086;28;20196;-74
2021/12/16 09:32:52;;;;;;;0.33;0.33;;;11.80;99.90;11.70;103605.00;;;;5114531;28;20661;-74
2021/12/16 09:35:25;;;;;;;1.63;1.53;;;11.60;99.90;12.40;103602.00;;;;5114567;28;20170;-74
2021/12/16 09:37:58;;;;;;;0.80;0.80;;;11.80;99.90;11.90;103604.00;;;;5095341;28;20198;-74
2021/12/16 09:40:35;;;;;;;0.93;0.93;;;11.70;99.90;12.20;103626.00;;;;5113399;28;20270;-74
2021/12/16 09:43:02;;;;;;;2.97;2.70;;;11.80;99.90;11.80;103573.00;;;;5096847;28;20176;-74
2021/12/16 09:45:33;;;;;;;0.30;0.30;;;11.80;99.90;11.40;103592.00;;;;5096057;28;20240;-74
2021/12/16 09:48:02;;;;;;;1.40;1.40;;;11.50;99.90;12.10;103616.00;;;;5095854;28;20191;-75
2021/12/16 09:50:35;;;;;;;0.30;0.30;;;11.70;99.90;12.30;103636.00;;;;5111324;28;20184;-74
2021/12/16 09:53:07;;;;;;;2.60;2.10;;;11.90;99.90;12.80;103628.00;;;;5106893;28;20210;-74
2021/12/16 09:55:36;;;;;;;0.30;0.30;;;12.30;99.90;11.80;103643.00;;;;5092967;28;20558;-75
2021/12/16 09:58:08;;;;;;;2.77;2.60;;;11.90;99.90;12.40;103602.00;;;;5092972;28;20732;-75
2021/12/16 10:00:39;;;;;;;0.60;0.60;;;11.90;99.90;12.00;103638.00;;;;5093756;28;20185;-75
2021/12/16 10:03:11;;;;;;;0.30;0.30;;;11.90;99.90;12.40;103633.00;;;;5087147;28;20236;-75
2021/12/16 10:05:45;;;;;;;5.83;5.37;;;12.00;99.90;12.90;103646.00;;;;5103847;28;20186;-75
2021/12/16 10:08:14;;;;;;;1.03;1.03;;;12.30;99.90;12.40;103640.00;;;;5091818;28;20198;-74
2021/12/16 10:10:46;;;;;;;2.30;2.00;;;12.20;99.90;12.10;103636.00;;;;5112775;28;20186;-74
2021/12/16 10:13:35;;;;;;;2.20;2.10;;;12.00;99.90;12.70;103627.00;;;;5095271;28;20203;-75
2021/12/16 10:18:39;;;;;;;0.93;0.93;;;12.60;99.90;12.60;103633.00;;;;5112864;28;20179;-75
2021/12/16 10:33:47;;;;;;;0.20;0.20;;;11.90;99.90;12.30;103605.00;;;;5094015;27;1291305;-75
2021/12/16 10:36:43;;;;;;;0.27;0.27;;;12.10;99.90;13.10;103622.00;;;;5113429;28;20179;-75
2021/12/16 10:39:22;;;;;;;0.30;0.30;;;12.60;99.90;13.90;103612.00;;;;5122631;28;20199;-72
2021/12/16 10:41:58;;;;;;;0.30;0.30;;;13.10;99.90;14.10;103641.00;;;;5130461;28;20187;-73
2021/12/16 10:44:34;;;;;;;0.30;0.30;;;13.40;99.90;14.40;103634.00;;;;5131536;27;20178;-74
2021/12/16 10:47:10;;;;;;;4.67;4.10;;;13.60;99.90;13.40;103626.00;;;;5130250;28;20624;-73
2021/12/16 10:49:52;;;;;;;0.37;0.37;;;13.40;99.90;13.10;103632.00;;;;5130008;28;20163;-72
2021/12/16 10:52:28;;;;;;;0.30;0.30;;;13.10;99.90;13.40;103615.00;;;;5130104;28;20195;-74
2021/12/16 10:55:01;;;;;;;1.30;1.20;;;13.10;99.90;13.20;103586.00;;;;5130167;28;20169;-74
2021/12/16 10:57:32;;;;;;;0.63;0.63;;;13.10;99.90;12.60;103622.00;;;;5130125;28;20181;-73
2021/12/16 11:00:10;;;;;;;0.60;0.60;;;12.90;99.90;12.30;103614.00;;;;5129890;28;20233;-73
2021/12/16 11:02:43;;;;;;;0.73;0.73;;;12.60;99.90;12.20;103617.00;;;;5113064;28;20183;-65
2021/12/16 11:05:23;;;;;;;0.30;0.30;;;12.40;99.90;12.00;103616.00;;;;5129623;28;20537;-66
2021/12/16 11:07:58;;;;;;;4.93;3.73;;;12.20;99.90;11.70;103618.00;;;;5131368;27;20165;-62
2021/12/16 11:10:35;;;;;;;3.63;3.40;;;12.00;99.90;11.90;103621.00;;;;5130121;28;20179;-62
2021/12/16 11:13:14;;;;;;;2.13;2.03;;;12.00;99.90;11.90;103621.00;;;;5129849;28;20204;-64
2021/12/16 11:15:53;;;;;;;2.27;2.17;;;11.90;99.90;12.60;103621.00;;;;5124583;28;20200;-71
2021/12/16 11:18:28;;;;;;;4.80;3.73;;;12.10;99.90;12.50;103611.00;;;;5121968;28;20258;-71
2021/12/16 11:21:06;;;;;;;3.37;3.07;;;12.40;99.90;12.30;103623.00;;;;5129539;28;20188;-72
2021/12/16 11:23:44;;;;;;;0.30;0.30;;;12.30;99.90;12.60;103630.00;;;;5129395;28;20174;-72
2021/12/16 11:26:17;;;;;;;0.93;0.93;;;12.50;99.90;12.80;103622.00;;;;5130001;28;20161;-71
2021/12/16 11:28:48;;;;;;;29.20;27.23;;;12.60;99.90;13.60;103619.00;;;;5128420;28;20169;-71
2021/12/16 11:31:27;;;;;;;0.93;0.93;;;13.00;99.90;13.90;103616.00;;;;5122779;28;20744;-71
2021/12/16 11:34:04;;;;;;;0.33;0.33;;;13.60;99.90;13.50;103620.00;;;;5123102;28;20204;-71
2021/12/16 11:36:40;;;;;;;0.30;0.30;;;13.40;99.90;14.40;103621.00;;;;5129561;28;20221;-72
2021/12/16 11:39:20;;;;;;;1.13;1.13;;;13.80;99.90;15.10;103586.00;;;;5111718;28;20255;-68
2021/12/16 11:42:00;;;;;;;0.30;0.30;;;14.40;99.90;15.30;103617.00;;;;5108829;28;20178;-68
2021/12/16 11:44:33;;;;;;;3.30;2.87;;;14.70;99.90;15.30;103621.00;;;;5095526;28;20180;-68
2021/12/16 11:47:05;;;;;;;0.20;0.20;;;14.80;99.90;14.20;103611.00;;;;5094922;28;20177;-68
2021/12/16 11:49:39;;;;;;;0.30;0.30;;;14.50;99.90;14.60;103619.00;;;;5094795;28;20169;-68
2021/12/16 11:52:29;;;;;;;0.60;0.60;;;14.40;99.90;15.20;103557.00;;;;5095597;28;20672;-68
2021/12/16 11:55:09;;;;;;;0.20;0.20;;;14.60;99.90;15.50;103616.00;;;;5094491;28;20207;-67
2021/12/16 11:57:54;;;;;;;0.30;0.30;;;14.90;99.90;16.00;103632.00;;;;5095588;28;20177;-68
2021/12/16 12:01:08;;;;;;;0.60;0.60;;;15.30;99.90;16.20;103644.00;;;;5096012;28;20186;-68
2021/12/16 12:03:42;;;;;;;0.20;0.20;;;15.60;99.90;15.20;103633.00;;;;5087888;28;20287;-67
2021/12/16 12:06:27;;;;;;;0.20;0.20;;;15.00;99.90;15.60;103645.00;;;;5078466;28;20650;-69
2021/12/16 12:09:02;;;;;;;0.20;0.20;;;15.10;99.90;15.80;103658.00;;;;5094820;28;20178;-69
2021/12/16 12:11:43;;;;;;;0.30;0.30;;;15.20;99.90;16.10;103660.00;;;;5093863;28;20205;-68
2021/12/16 12:14:22;;;;;;;0.30;0.30;;;15.40;99.90;16.80;103675.00;;;;5094348;28;20621;-68
2021/12/16 12:17:12;;;;;;;0.40;0.40;;;15.80;99.90;16.80;103684.00;;;;5094030;28;20175;-68
2021/12/16 12:19:50;;;;;;;0.30;0.30;;;16.10;99.90;16.60;103695.00;;;;5077617;28;20698;-68
2021/12/16 12:22:35;;;;;;;0.20;0.20;;;16.20;99.90;16.20;103702.00;;;;5095114;28;20248;-68
2021/12/16 12:25:15;;;;;;;0.20;0.20;;;15.80;99.90;16.70;103714.00;;;;5095324;28;20155;-68
2021/12/16 12:27:49;;;;;;;0.20;0.20;;;15.90;99.90;16.90;103711.00;;;;5094381;28;20193;-72
2021/12/16 12:30:21;;;;;;;0.20;0.20;;;16.00;99.90;16.60;103707.00;;;;5078041;28;20528;-72
2021/12/16 12:32:57;;;;;;;0.30;0.30;;;16.00;99.90;16.60;103710.00;;;;5075879;28;20659;-71
2021/12/16 12:35:28;;;;;;;0.40;0.40;;;15.90;99.90;16.60;103721.00;;;;5094011;28;20187;-72
2021/12/16 12:38:02;;;;;;;2.10;2.00;;;15.80;99.90;16.50;103731.00;;;;5094230;28;20180;-72
2021/12/16 12:40:40;;;;;;;0.20;0.20;;;15.70;99.90;16.80;103737.00;;;;5094076;28;20185;-72
2021/12/16 12:43:13;;;;;;;0.30;0.30;;;15.80;99.90;17.00;103746.00;;;;5076877;28;20188;-72
2021/12/16 12:45:42;;;;;;;0.30;0.30;;;15.90;99.90;16.90;103746.00;;;;5093356;28;20263;-72
2021/12/16 12:48:16;;;;;;;0.30;0.30;;;16.00;99.90;16.80;103741.00;;;;5076900;28;20515;-71
2021/12/16 12:50:48;;;;;;;0.30;0.30;;;16.00;99.90;16.90;103728.00;;;;5093763;28;20170;-72
2021/12/16 12:53:30;;;;;;;0.33;0.33;;;16.10;99.90;16.80;103733.00;;;;5093580;28;20210;-72
2021/12/16 12:56:31;;;;;;;0.30;0.30;;;16.00;99.90;16.80;103731.00;;;;5075859;28;20282;-72
2021/12/16 12:59:11;;;;;;;0.30;0.30;;;16.10;99.90;16.50;103737.00;;;;5076279;28;20256;-72
2021/12/16 13:01:53;;;;;;;0.30;0.30;;;16.00;99.90;16.00;103738.00;;;;5093642;28;20288;-72
2021/12/16 13:04:47;;;;;;;0.20;0.20;;;15.50;99.90;16.10;103703.00;;;;5076792;28;20556;-72
2021/12/16 13:07:16;;;;;;;0.30;0.30;;;15.30;99.90;16.50;103700.00;;;;5075875;28;20168;-71
2021/12/16 13:09:45;;;;;;;0.30;0.30;;;15.50;99.90;16.30;103718.00;;;;5076268;28;20178;-72
2021/12/16 13:12:48;;;;;;;0.30;0.30;;;15.50;99.90;16.60;103717.00;;;;5093000;28;20301;-71
2021/12/16 13:27:06;;;;;;;1.67;1.57;;;15.40;99.90;15.50;103686.00;;;;5093412;28;20188;-68
2021/12/16 13:30:04;;;;;;;0.30;0.30;;;15.30;99.90;15.80;103692.00;;;;5093169;28;20202;-68
2021/12/16 13:32:41;;;;;;;0.40;0.40;;;15.20;99.90;15.50;103683.00;;;;5092651;28;20243;-68
2021/12/16 13:35:32;;;;;;;0.50;0.50;;;15.00;99.90;15.40;103678.00;;;;5077473;28;20190;-68
2021/12/16 13:38:09;;;;;;;2.70;2.50;;;14.90;99.90;14.10;103650.00;;;;5094046;28;20628;-68
2021/12/16 13:40:45;;;;;;;3.27;2.20;;;14.40;99.90;13.60;103627.00;;;;5092843;28;20174;-64
2021/12/16 13:43:29;;;;;;;1.97;1.87;;;13.70;99.90;13.60;103641.00;;;;5092808;28;20185;-72
2021/12/16 13:46:30;;;;;;;0.30;0.30;;;13.50;99.90;14.30;103646.00;;;;5075309;28;20246;-72
2021/12/16 13:59:02;;;;;;;0.67;0.67;;;14.10;99.90;14.80;103647.00;;;;5092238;28;20193;-73
2021/12/16 14:04:24;;;;;;;0.30;0.30;;;14.10;99.90;14.10;103626.00;;;;5104159;28;20728;-73
2021/12/16 14:07:13;;;;;;;0.30;0.30;;;13.90;99.90;14.50;103659.00;;;;5101064;28;20189;-74
2021/12/16 14:15:59;;;;;;;0.63;0.63;;;13.90;99.90;13.80;103670.00;;;;5102131;28;20201;-72
2021/12/16 14:25:11;;;;;;;1.70;1.60;;;13.30;99.90;13.40;103646.00;;;;5093237;28;20191;-72
2021/12/16 14:40:07;;;;;;;0.30;0.30;;;13.50;99.90;14.00;103613.00;;;;5090858;28;20179;-72
2021/12/16 14:50:40;;;;;;;0.40;0.40;;;13.40;99.90;13.80;103652.00;;;;5090104;28;20189;-73
2021/12/16 14:53:40;;;;;;;0.30;0.30;;;13.30;99.90;13.70;103647.00;;;;5074898;28;20264;-73
2021/12/16 14:56:12;;;;;;;0.30;0.30;;;13.20;99.90;13.60;103656.00;;;;5092483;28;20216;-73
2021/12/16 14:58:43;;;;;;;0.30;0.30;;;13.10;99.90;13.60;103647.00;;;;5092161;28;20561;-73
2021/12/16 15:01:42;;;;;;;0.30;0.30;;;13.10;99.90;13.30;103651.00;;;;5112214;28;20173;-73
2021/12/16 15:04:16;;;;;;;0.40;0.40;;;12.90;99.90;13.20;103605.00;;;;5111634;28;20645;-72
2021/12/16 15:06:56;;;;;;;0.30;0.30;;;12.70;99.90;13.00;103637.00;;;;5111481;28;20178;-73
2021/12/16 15:09:29;;;;;;;0.40;0.40;;;12.60;99.90;13.00;103628.00;;;;5095822;28;20263;-73
2021/12/16 15:12:16;;;;;;;0.40;0.40;;;12.50;99.90;13.00;103655.00;;;;5111917;28;20657;-73
2021/12/16 15:43:18;;;;;;;0.40;0.40;;;11.70;99.90;12.00;103648.00;;;;5115718;28;20190;-73
2021/12/16 15:45:54;;;;;;;0.50;0.50;;;11.60;99.90;12.20;103649.00;;;;5098515;28;20268;-73